createdAt,value
2022-08-09T00:01:16.443Z,21.20
2022-08-09T00:04:05.900Z,21.10
2022-08-09T00:06:44.297Z,21.10
2022-08-09T00:09:18.045Z,21.10
2022-08-09T00:11:58.670Z,21.00
2022-08-09T00:14:37.895Z,21.00
2022-08-09T00:17:08.767Z,21.00
2022-08-09T00:20:04.369Z,21.00
2022-08-09T00:22:35.228Z,20.90
2022-08-09T00:25:08.554Z,20.90
2022-08-09T00:27:43.098Z,20.90
2022-08-09T00:30:26.051Z,20.90
2022-08-09T00:33:04.623Z,20.80
2022-08-09T00:35:44.740Z,20.80
2022-08-09T00:38:16.319Z,20.80
2022-08-09T00:40:53.234Z,20.80
2022-08-09T00:44:10.157Z,20.80
2022-08-09T00:46:45.324Z,20.70
2022-08-09T00:49:03.990Z,20.70
2022-08-09T00:51:44.124Z,20.70
2022-08-09T00:54:36.319Z,20.60
2022-08-09T00:57:12.443Z,20.60
2022-08-09T00:59:52.519Z,20.60
2022-08-09T01:02:27.292Z,20.60
2022-08-09T01:05:53.830Z,20.50
2022-08-09T01:08:51.651Z,20.50
2022-08-09T01:11:41.791Z,20.50
2022-08-09T01:14:41.867Z,20.50
2022-08-09T01:17:22.929Z,20.40
2022-08-09T01:20:13.823Z,20.40
2022-08-09T01:24:03.466Z,20.40
2022-08-09T01:26:32.252Z,20.30
2022-08-09T01:29:11.917Z,20.30
2022-08-09T01:32:32.179Z,20.20
2022-08-09T01:34:44.194Z,20.20
2022-08-09T01:37:15.673Z,20.20
2022-08-09T01:39:55.642Z,20.10
2022-08-09T01:42:33.420Z,20.10
2022-08-09T01:45:07.428Z,20.10
2022-08-09T01:47:44.761Z,20.00
2022-08-09T01:50:17.142Z,20.00
2022-08-09T01:52:45.537Z,20.00
2022-08-09T01:55:24.099Z,20.00
2022-08-09T01:58:15.922Z,20.00
2022-08-09T02:00:50.444Z,20.00
2022-08-09T02:03:22.436Z,19.90
2022-08-09T02:06:04.167Z,19.90
2022-08-09T02:08:58.889Z,19.90
2022-08-09T02:11:42.140Z,19.80
2022-08-09T02:14:26.241Z,19.80
2022-08-09T02:17:15.270Z,19.80
2022-08-09T02:19:47.651Z,19.80
2022-08-09T02:22:45.786Z,19.80
2022-08-09T02:25:23.983Z,19.80
2022-08-09T02:28:10.694Z,19.80
2022-08-09T02:30:54.256Z,19.70
2022-08-09T02:33:38.408Z,19.70
2022-08-09T02:36:32.796Z,19.70
2022-08-09T02:39:06.442Z,19.60
2022-08-09T02:41:42.249Z,19.60
2022-08-09T02:44:29.040Z,19.60
2022-08-09T02:47:01.450Z,19.60
2022-08-09T02:49:38.558Z,19.60
2022-08-09T02:52:14.847Z,19.50
2022-08-09T02:54:53.870Z,19.50
2022-08-09T02:57:28.595Z,19.50
2022-08-09T03:00:20.933Z,19.40
2022-08-09T03:02:58.198Z,19.40
2022-08-09T03:05:34.999Z,19.30
2022-08-09T03:08:05.951Z,19.30
2022-08-09T03:10:36.737Z,19.30
2022-08-09T03:13:13.810Z,19.20
2022-08-09T03:16:06.234Z,19.20
2022-08-09T03:18:32.555Z,19.20
2022-08-09T03:21:04.673Z,19.20
2022-08-09T03:23:35.652Z,19.20
2022-08-09T03:26:05.184Z,19.20
2022-08-09T03:28:36.160Z,19.20
2022-08-09T03:31:20.977Z,19.20
2022-08-09T03:33:54.915Z,19.20
2022-08-09T03:36:27.343Z,19.10
2022-08-09T03:38:58.473Z,19.10
2022-08-09T03:41:29.979Z,19.10
2022-08-09T03:44:16.483Z,19.10
2022-08-09T03:46:49.215Z,19.00
2022-08-09T03:49:24.047Z,19.00
2022-08-09T03:52:03.787Z,19.00
2022-08-09T03:54:46.574Z,19.00
2022-08-09T03:57:32.794Z,18.90
2022-08-09T04:00:15.142Z,18.90
2022-08-09T04:02:45.502Z,18.90
2022-08-09T04:05:33.542Z,18.80
2022-08-09T04:08:08.280Z,18.80
2022-08-09T04:10:36.202Z,18.80
2022-08-09T04:14:36.615Z,18.80
2022-08-09T04:16:19.592Z,18.80
2022-08-09T04:18:50.974Z,18.80
2022-08-09T04:21:26.577Z,18.80
2022-08-09T04:24:04.293Z,18.80
2022-08-09T04:26:35.069Z,18.80
2022-08-09T04:29:13.491Z,18.80
2022-08-09T04:31:47.642Z,18.70
2022-08-09T04:34:18.989Z,18.80
2022-08-09T04:37:03.344Z,18.80
2022-08-09T04:39:32.074Z,18.80
2022-08-09T04:42:09.594Z,18.80
2022-08-09T04:44:40.580Z,18.80
2022-08-09T04:47:19.022Z,18.80
2022-08-09T04:49:54.362Z,18.80
2022-08-09T04:52:28.377Z,18.80
2022-08-09T04:54:59.621Z,18.80
2022-08-09T04:57:54.176Z,18.80
2022-08-09T05:00:18.175Z,18.80
2022-08-09T05:02:52.640Z,18.80
2022-08-09T05:05:31.810Z,18.80
2022-08-09T05:08:08.941Z,18.80
2022-08-09T05:10:36.638Z,18.80
2022-08-09T05:13:04.847Z,18.80
2022-08-09T05:15:38.516Z,18.90
2022-08-09T05:18:38.288Z,18.90
2022-08-09T05:20:59.748Z,18.90
2022-08-09T05:23:54.183Z,18.90
2022-08-09T05:26:22.363Z,18.90
2022-08-09T05:29:02.267Z,19.00
2022-08-09T05:31:44.223Z,19.00
2022-08-09T05:34:17.593Z,19.00
2022-08-09T05:36:48.255Z,19.10
2022-08-09T05:39:28.804Z,19.10
2022-08-09T05:42:01.482Z,19.10
2022-08-09T05:44:34.587Z,19.10
2022-08-09T05:47:05.152Z,19.20
2022-08-09T05:50:31.295Z,19.20
2022-08-09T05:52:24.782Z,19.30
2022-08-09T05:54:55.305Z,19.30
2022-08-09T05:57:25.035Z,19.40
2022-08-09T06:00:10.743Z,19.50
2022-08-09T06:02:46.798Z,19.60
2022-08-09T06:05:18.188Z,19.60
2022-08-09T06:08:07.808Z,19.80
2022-08-09T06:10:38.722Z,19.90
2022-08-09T06:13:20.201Z,20.10
2022-08-09T06:15:52.278Z,20.30
2022-08-09T06:18:24.938Z,20.40
2022-08-09T06:20:58.478Z,20.60
2022-08-09T06:23:57.183Z,20.70
2022-08-09T06:26:22.185Z,20.80
2022-08-09T06:28:59.292Z,20.90
2022-08-09T06:31:31.477Z,21.00
2022-08-09T06:34:07.910Z,21.10
2022-08-09T06:36:37.668Z,21.10
2022-08-09T06:39:12.711Z,21.20
2022-08-09T06:42:08.200Z,21.30
2022-08-09T06:44:31.009Z,21.40
2022-08-09T06:46:58.317Z,21.40
2022-08-09T06:49:44.541Z,21.50
2022-08-09T06:52:16.003Z,21.60
2022-08-09T06:54:43.671Z,21.60
2022-08-09T06:57:12.162Z,21.70
2022-08-09T07:00:51.955Z,21.80
2022-08-09T07:02:29.185Z,21.90
2022-08-09T07:04:58.050Z,22.00
2022-08-09T07:08:00.650Z,22.10
2022-08-09T07:10:29.472Z,22.10
2022-08-09T07:12:59.722Z,22.20
2022-08-09T07:16:36.370Z,22.30
2022-08-09T07:18:17.721Z,22.50
2022-08-09T07:20:44.658Z,22.60
2022-08-09T07:23:19.416Z,22.80
2022-08-09T07:25:52.224Z,22.90
2022-08-09T07:28:28.077Z,23.00
2022-08-09T07:30:55.956Z,23.10
2022-08-09T07:33:23.379Z,23.10
2022-08-09T07:35:54.685Z,23.20
2022-08-09T07:38:23.147Z,23.20
2022-08-09T07:41:10.013Z,23.30
2022-08-09T07:43:55.882Z,23.50
2022-08-09T07:46:25.313Z,23.60
2022-08-09T07:48:59.408Z,23.70
2022-08-09T07:52:05.358Z,23.70
2022-08-09T07:54:19.241Z,23.80
2022-08-09T07:57:05.723Z,24.00
2022-08-09T07:59:52.302Z,24.00
2022-08-09T08:02:26.467Z,24.10
2022-08-09T08:04:56.348Z,24.10
2022-08-09T08:08:42.801Z,24.20
2022-08-09T08:10:11.362Z,24.40
2022-08-09T08:12:43.802Z,24.50
2022-08-09T08:15:17.605Z,24.50
2022-08-09T08:17:53.460Z,24.50
2022-08-09T08:20:28.759Z,24.60
2022-08-09T08:23:01.402Z,24.60
2022-08-09T08:25:44.668Z,24.70
2022-08-09T08:28:14.990Z,24.80
2022-08-09T08:30:44.046Z,24.90
2022-08-09T08:33:11.927Z,24.90
2022-08-09T08:35:58.268Z,25.10
2022-08-09T08:38:26.063Z,25.20
2022-08-09T08:40:56.745Z,25.20
2022-08-09T08:43:25.703Z,25.30
2022-08-09T08:46:03.815Z,25.40
2022-08-09T08:48:37.128Z,25.50
2022-08-09T08:51:05.020Z,25.60
2022-08-09T08:53:37.215Z,25.70
2022-08-09T08:56:06.097Z,25.80
2022-08-09T08:58:33.436Z,25.90
2022-08-09T09:01:08.966Z,26.00
2022-08-09T09:03:50.616Z,26.00
2022-08-09T09:06:19.519Z,26.10
2022-08-09T09:08:52.473Z,26.20
2022-08-09T09:11:20.843Z,26.30
2022-08-09T09:13:57.146Z,26.40
2022-08-09T09:16:30.757Z,26.50
2022-08-09T09:19:22.537Z,26.60
2022-08-09T09:22:11.699Z,26.60
2022-08-09T09:26:03.920Z,26.60
2022-08-09T09:28:06.930Z,26.70
2022-08-09T09:30:41.221Z,26.70
2022-08-09T09:33:15.734Z,26.80
2022-08-09T09:36:01.470Z,26.90
2022-08-09T09:38:43.743Z,27.00
2022-08-09T09:41:48.843Z,27.10
2022-08-09T09:44:31.498Z,27.10
2022-08-09T09:47:16.650Z,27.20
2022-08-09T09:50:13.768Z,27.30
2022-08-09T09:52:56.349Z,27.40
2022-08-09T09:55:32.557Z,27.50
2022-08-09T09:58:16.922Z,27.60
2022-08-09T10:00:50.327Z,27.60
2022-08-09T10:03:56.180Z,27.70
2022-08-09T10:06:24.787Z,27.80
2022-08-09T10:08:58.531Z,27.90
2022-08-09T10:12:00.496Z,28.00
2022-08-09T10:14:47.781Z,28.00
2022-08-09T10:17:50.197Z,28.10
2022-08-09T10:20:27.409Z,28.20
2022-08-09T10:23:19.880Z,28.20
2022-08-09T10:26:07.712Z,28.20
2022-08-09T10:28:35.570Z,28.30
2022-08-09T10:34:09.710Z,28.50
2022-08-09T10:36:38.485Z,28.60
2022-08-09T10:39:15.768Z,28.60
2022-08-09T10:41:46.065Z,28.60
2022-08-09T10:44:17.934Z,28.70
2022-08-09T10:46:55.070Z,28.70
2022-08-09T10:49:42.330Z,28.80
2022-08-09T10:52:44.818Z,28.90
2022-08-09T10:55:26.099Z,28.90
2022-08-09T10:57:56.039Z,29.00
2022-08-09T11:00:34.382Z,29.10
2022-08-09T11:03:27.225Z,29.20
2022-08-09T11:06:16.004Z,29.20
2022-08-09T11:08:47.605Z,29.20
2022-08-09T11:11:19.053Z,29.20
2022-08-09T11:13:53.744Z,29.20
2022-08-09T11:16:39.028Z,29.20
2022-08-09T11:19:10.073Z,29.40
2022-08-09T11:22:10.191Z,29.40
2022-08-09T11:25:08.184Z,29.50
2022-08-09T11:28:04.488Z,29.50
2022-08-09T11:30:32.817Z,29.60
2022-08-09T11:33:10.500Z,29.60
2022-08-09T11:35:50.211Z,29.70
2022-08-09T11:38:32.404Z,29.70
2022-08-09T11:41:38.475Z,29.70
2022-08-09T11:44:08.412Z,29.70
2022-08-09T11:46:54.583Z,29.80
2022-08-09T11:50:54.378Z,29.90
2022-08-09T11:53:15.783Z,30.00
2022-08-09T11:55:53.228Z,30.00
2022-08-09T11:58:32.595Z,29.90
2022-08-09T12:01:08.323Z,30.00
2022-08-09T12:03:57.369Z,30.00
2022-08-09T12:06:32.346Z,30.00
2022-08-09T12:09:03.644Z,30.10
2022-08-09T12:12:02.475Z,30.10
2022-08-09T12:14:36.759Z,30.20
2022-08-09T12:17:23.330Z,30.20
2022-08-09T12:19:59.364Z,30.20
2022-08-09T12:22:27.940Z,30.30
2022-08-09T12:25:31.847Z,30.30
2022-08-09T12:29:12.462Z,30.40
2022-08-09T12:31:10.846Z,30.50
2022-08-09T12:33:58.688Z,30.60
2022-08-09T12:36:31.950Z,30.60
2022-08-09T12:39:00.906Z,30.70
2022-08-09T12:41:39.301Z,30.70
2022-08-09T12:44:12.930Z,30.60
2022-08-09T12:46:48.909Z,30.60
2022-08-09T12:49:18.172Z,30.70
2022-08-09T12:52:02.695Z,30.70
2022-08-09T12:56:11.502Z,30.80
2022-08-09T12:57:42.011Z,30.80
2022-08-09T13:00:17.388Z,30.80
2022-08-09T13:02:57.187Z,30.90
2022-08-09T13:05:27.241Z,30.90
2022-08-09T13:08:39.850Z,31.00
2022-08-09T13:11:13.405Z,31.00
2022-08-09T13:14:37.898Z,31.00
2022-08-09T13:16:53.829Z,31.00
2022-08-09T13:20:06.739Z,31.10
2022-08-09T13:22:35.376Z,31.20
2022-08-09T13:25:07.572Z,31.30
2022-08-09T13:27:48.363Z,31.20
2022-08-09T13:30:51.176Z,31.30
2022-08-09T13:33:20.981Z,31.20
2022-08-09T13:36:41.839Z,31.20
2022-08-09T13:38:55.500Z,31.20
2022-08-09T13:41:59.395Z,31.30
2022-08-09T13:44:13.641Z,31.40
2022-08-09T13:47:27.537Z,31.50
2022-08-09T13:49:37.725Z,31.50
2022-08-09T13:52:09.183Z,31.60
2022-08-09T13:54:42.834Z,31.80
2022-08-09T13:57:35.049Z,32.00
2022-08-09T13:59:58.195Z,32.20
2022-08-09T14:02:26.229Z,32.40
2022-08-09T14:05:00.065Z,32.50
2022-08-09T14:07:40.881Z,32.60
2022-08-09T14:10:17.022Z,32.70
2022-08-09T14:12:44.636Z,32.60
2022-08-09T14:16:06.647Z,32.40
2022-08-09T14:18:18.895Z,32.40
2022-08-09T14:20:46.269Z,32.40
2022-08-09T14:23:20.378Z,32.50
2022-08-09T14:26:05.925Z,32.50
2022-08-09T14:28:33.382Z,32.60
2022-08-09T14:31:00.231Z,32.40
2022-08-09T14:33:27.755Z,32.30
2022-08-09T14:35:55.988Z,32.30
2022-08-09T14:38:22.746Z,32.30
2022-08-09T14:41:02.068Z,32.20
2022-08-09T14:43:47.565Z,32.20
2022-08-09T14:46:54.700Z,32.20
2022-08-09T14:49:03.029Z,32.10
2022-08-09T14:51:30.397Z,32.10
2022-08-09T14:54:09.571Z,32.00
2022-08-09T14:56:57.637Z,31.90
2022-08-09T14:59:23.585Z,31.80
2022-08-09T15:01:50.711Z,31.60
2022-08-09T15:04:18.613Z,31.60
2022-08-09T15:06:49.398Z,31.70
2022-08-09T15:09:30.418Z,31.70
2022-08-09T15:12:04.977Z,31.70
2022-08-09T15:14:38.741Z,31.70
2022-08-09T15:17:09.800Z,31.70
2022-08-09T15:19:59.648Z,31.80
2022-08-09T15:22:30.221Z,31.80
2022-08-09T15:24:59.935Z,31.80
2022-08-09T15:27:47.419Z,31.80
2022-08-09T15:30:48.740Z,31.80
2022-08-09T15:33:07.401Z,31.80
2022-08-09T15:35:44.084Z,31.80
2022-08-09T15:38:12.312Z,31.70
2022-08-09T15:40:43.460Z,31.70
2022-08-09T15:43:13.204Z,31.60
2022-08-09T15:46:07.903Z,31.50
2022-08-09T15:48:30.848Z,31.50
2022-08-09T15:51:00.196Z,31.60
2022-08-09T15:54:03.446Z,31.70
2022-08-09T15:56:28.596Z,31.70
2022-08-09T15:58:57.834Z,31.80
2022-08-09T16:01:24.850Z,31.80
2022-08-09T16:03:52.497Z,31.80
2022-08-09T16:06:34.892Z,31.80
2022-08-09T16:09:05.129Z,31.80
2022-08-09T16:11:33.082Z,31.70
2022-08-09T16:14:06.917Z,31.70
2022-08-09T16:16:41.807Z,31.80
2022-08-09T16:19:13.787Z,31.90
2022-08-09T16:21:42.779Z,32.10
2022-08-09T16:24:20.110Z,32.20
2022-08-09T16:26:59.831Z,32.30
2022-08-09T16:29:36.946Z,32.40
2022-08-09T16:32:18.111Z,32.50
2022-08-09T16:34:54.646Z,32.70
2022-08-09T16:37:53.130Z,33.00
2022-08-09T16:40:12.639Z,33.20
2022-08-09T16:42:44.982Z,33.30
2022-08-09T16:45:19.152Z,33.40
2022-08-09T16:48:38.021Z,33.50
2022-08-09T16:50:34.835Z,33.60
2022-08-09T16:53:05.872Z,33.80
2022-08-09T16:55:57.821Z,34.00
2022-08-09T16:58:21.145Z,34.30
2022-08-09T17:00:49.635Z,34.60
2022-08-09T17:03:21.922Z,34.70
2022-08-09T17:06:08.775Z,34.90
2022-08-09T17:08:43.078Z,35.10
2022-08-09T17:11:24.355Z,35.50
2022-08-09T17:14:01.575Z,35.70
2022-08-09T17:16:29.346Z,36.00
2022-08-09T17:18:56.631Z,36.00
2022-08-09T17:21:25.251Z,35.90
2022-08-09T17:24:28.424Z,35.70
2022-08-09T17:26:43.285Z,35.50
2022-08-09T17:29:20.381Z,35.70
2022-08-09T17:31:49.188Z,35.90
2022-08-09T17:35:00.424Z,36.00
2022-08-09T17:37:04.138Z,36.30
2022-08-09T17:39:52.625Z,36.60
2022-08-09T17:42:41.037Z,36.80
2022-08-09T17:45:06.452Z,37.10
2022-08-09T17:47:49.066Z,37.60
2022-08-09T17:50:36.167Z,37.30
2022-08-09T17:53:04.648Z,36.80
2022-08-09T17:55:49.206Z,35.90
2022-08-09T17:58:18.985Z,35.10
2022-08-09T18:00:47.922Z,34.20
2022-08-09T18:03:15.438Z,33.60
2022-08-09T18:05:45.277Z,33.00
2022-08-09T18:08:22.291Z,32.50
2022-08-09T18:11:00.791Z,32.10
2022-08-09T18:13:43.254Z,31.90
2022-08-09T18:16:17.224Z,31.50
2022-08-09T18:18:57.019Z,31.10
2022-08-09T18:21:24.657Z,30.80
2022-08-09T18:24:10.300Z,30.60
2022-08-09T18:26:46.205Z,30.40
2022-08-09T18:30:35.368Z,30.10
2022-08-09T18:32:05.317Z,29.90
2022-08-09T18:34:35.469Z,29.70
2022-08-09T18:37:10.334Z,29.60
2022-08-09T18:39:57.524Z,29.30
2022-08-09T18:42:29.137Z,29.20
2022-08-09T18:45:00.892Z,29.10
2022-08-09T18:47:37.337Z,29.00
2022-08-09T18:50:09.929Z,29.00
2022-08-09T18:52:37.778Z,28.80
2022-08-09T18:55:13.641Z,28.70
2022-08-09T18:57:44.647Z,28.60
2022-08-09T19:00:19.115Z,28.50
2022-08-09T19:02:51.318Z,28.40
2022-08-09T19:05:48.987Z,28.30
2022-08-09T19:08:11.891Z,28.10
2022-08-09T19:10:41.749Z,27.90
2022-08-09T19:13:22.667Z,27.90
2022-08-09T19:15:56.306Z,27.80
2022-08-09T19:18:33.524Z,27.80
2022-08-09T19:21:09.270Z,27.80
2022-08-09T19:24:32.871Z,27.80
2022-08-09T19:26:31.617Z,27.70
2022-08-09T19:29:09.685Z,27.60
2022-08-09T19:31:49.293Z,27.50
2022-08-09T19:34:21.938Z,27.40
2022-08-09T19:36:55.734Z,27.40
2022-08-09T19:40:02.701Z,27.30
2022-08-09T19:42:29.325Z,27.20
2022-08-09T19:44:56.589Z,27.10
2022-08-09T19:47:27.054Z,27.00
2022-08-09T19:50:05.136Z,27.00
2022-08-09T19:52:37.735Z,27.00
2022-08-09T19:55:19.501Z,26.90
2022-08-09T19:57:56.288Z,26.90
2022-08-09T20:00:24.044Z,26.90
2022-08-09T20:04:18.421Z,26.80
2022-08-09T20:05:46.306Z,26.80
2022-08-09T20:08:16.160Z,26.80
2022-08-09T20:10:53.399Z,26.70
2022-08-09T20:13:23.034Z,26.60
2022-08-09T20:16:35.606Z,26.60
2022-08-09T20:18:37.726Z,26.50
2022-08-09T20:21:40.854Z,26.40
2022-08-09T20:24:12.637Z,26.40
2022-08-09T20:26:57.197Z,26.30
2022-08-09T20:29:28.746Z,26.20
2022-08-09T20:32:29.948Z,26.10
2022-08-09T20:34:54.315Z,26.10
2022-08-09T20:37:22.615Z,26.00
2022-08-09T20:40:16.272Z,25.90
2022-08-09T20:42:40.655Z,25.80
2022-08-09T20:46:01.975Z,25.80
2022-08-09T20:48:08.109Z,25.70
2022-08-09T20:50:47.133Z,25.60
2022-08-09T20:53:18.611Z,25.50
2022-08-09T20:56:06.566Z,25.50
2022-08-09T20:58:36.438Z,25.40
2022-08-09T21:01:33.412Z,25.40
2022-08-09T21:05:49.145Z,25.40
2022-08-09T21:06:44.209Z,25.30
2022-08-09T21:09:13.922Z,25.30
2022-08-09T21:14:33.834Z,25.10
2022-08-09T21:18:21.119Z,25.10
2022-08-09T21:20:18.551Z,25.00
2022-08-09T21:22:42.018Z,24.90
2022-08-09T21:25:38.248Z,24.80
2022-08-09T21:28:07.384Z,24.70
2022-08-09T21:30:41.565Z,24.70
2022-08-09T21:33:09.370Z,24.60
2022-08-09T21:35:40.621Z,24.60
2022-08-09T21:38:11.391Z,24.60
2022-08-09T21:40:40.802Z,24.50
2022-08-09T21:43:09.491Z,24.50
2022-08-09T21:45:38.821Z,24.40
2022-08-09T21:48:07.803Z,24.40
2022-08-09T21:50:39.240Z,24.30
2022-08-09T21:53:24.038Z,24.30
2022-08-09T21:56:06.916Z,24.30
2022-08-09T21:58:55.019Z,24.20
2022-08-09T22:01:26.412Z,24.10
2022-08-09T22:04:10.069Z,24.10
2022-08-09T22:06:37.444Z,24.10
2022-08-09T22:09:05.678Z,24.00
2022-08-09T22:12:06.574Z,24.00
2022-08-09T22:14:29.748Z,23.90
2022-08-09T22:16:59.762Z,23.90
2022-08-09T22:19:59.707Z,23.90
2022-08-09T22:22:18.495Z,23.80
2022-08-09T22:25:10.536Z,23.80
2022-08-09T22:27:36.252Z,23.80
2022-08-09T22:30:04.994Z,23.70
2022-08-09T22:32:33.233Z,23.70
2022-08-09T22:35:06.272Z,23.70
2022-08-09T22:37:40.601Z,23.60
2022-08-09T22:40:10.583Z,23.60
2022-08-09T22:42:47.740Z,23.50
2022-08-09T22:48:11.471Z,23.40
2022-08-09T22:48:13.802Z,23.50
2022-08-09T22:50:53.857Z,23.40
2022-08-09T22:53:21.696Z,23.40
2022-08-09T22:56:29.455Z,23.40
2022-08-09T22:58:37.552Z,23.30
2022-08-09T23:01:06.192Z,23.30
2022-08-09T23:04:03.465Z,23.20
2022-08-09T23:06:49.278Z,23.20
2022-08-09T23:09:16.682Z,23.10
2022-08-09T23:11:44.142Z,23.10
2022-08-09T23:14:17.187Z,23.10
2022-08-09T23:16:44.847Z,23.00
2022-08-09T23:19:11.929Z,23.00
2022-08-09T23:21:39.762Z,23.00
2022-08-09T23:24:07.609Z,22.90
2022-08-09T23:26:39.006Z,22.80
2022-08-09T23:29:13.536Z,22.70
2022-08-09T23:31:41.569Z,22.70
2022-08-09T23:34:09.365Z,22.60
2022-08-09T23:36:36.991Z,22.60
2022-08-09T23:39:05.570Z,22.50
2022-08-09T23:41:35.521Z,22.50
2022-08-09T23:44:06.129Z,22.40
2022-08-09T23:46:36.347Z,22.40
2022-08-09T23:49:03.551Z,22.40
2022-08-09T23:51:31.134Z,22.30
2022-08-09T23:54:02.873Z,22.30
2022-08-09T23:56:52.991Z,22.30
2022-08-09T23:59:20.723Z,22.20
